sensor_id;sensor_type;location;lat;lon;timestamp;P1;durP1;ratioP1;P2;durP2;ratioP2
23113;SDS011;11726;50.122;8.832;2023-08-06T00:00:53;5.85;;;3.60;;
23113;SDS011;11726;50.122;8.832;2023-08-06T00:03:20;6.38;;;3.13;;
23113;SDS011;11726;50.122;8.832;2023-08-06T00:05:46;3.85;;;3.42;;
23113;SDS011;11726;50.122;8.832;2023-08-06T00:08:13;4.00;;;3.13;;
23113;SDS011;11726;50.122;8.832;2023-08-06T00:10:39;4.30;;;3.00;;
23113;SDS011;11726;50.122;8.832;2023-08-06T00:13:07;3.28;;;2.97;;
23113;SDS011;11726;50.122;8.832;2023-08-06T00:15:34;3.17;;;2.75;;
23113;SDS011;11726;50.122;8.832;2023-08-06T00:18:00;8.65;;;3.13;;
23113;SDS011;11726;50.122;8.832;2023-08-06T00:20:27;5.07;;;3.10;;
23113;SDS011;11726;50.122;8.832;2023-08-06T00:22:54;10.15;;;3.35;;
23113;SDS011;11726;50.122;8.832;2023-08-06T00:25:20;4.13;;;3.33;;
23113;SDS011;11726;50.122;8.832;2023-08-06T00:27:47;7.40;;;3.63;;
23113;SDS011;11726;50.122;8.832;2023-08-06T00:30:14;3.75;;;3.03;;
23113;SDS011;11726;50.122;8.832;2023-08-06T00:32:40;4.78;;;3.38;;
23113;SDS011;11726;50.122;8.832;2023-08-06T00:35:07;5.75;;;3.67;;
23113;SDS011;11726;50.122;8.832;2023-08-06T00:37:34;6.10;;;3.40;;
23113;SDS011;11726;50.122;8.832;2023-08-06T00:40:00;3.97;;;3.22;;
23113;SDS011;11726;50.122;8.832;2023-08-06T00:42:27;5.82;;;3.00;;
23113;SDS011;11726;50.122;8.832;2023-08-06T00:44:53;5.43;;;3.40;;
23113;SDS011;11726;50.122;8.832;2023-08-06T00:47:20;3.20;;;2.90;;
23113;SDS011;11726;50.122;8.832;2023-08-06T00:49:47;4.55;;;3.17;;
23113;SDS011;11726;50.122;8.832;2023-08-06T00:52:14;4.88;;;3.05;;
23113;SDS011;11726;50.122;8.832;2023-08-06T00:54:40;5.25;;;2.85;;
23113;SDS011;11726;50.122;8.832;2023-08-06T00:57:07;6.07;;;3.20;;
23113;SDS011;11726;50.122;8.832;2023-08-06T00:59:35;3.65;;;2.83;;
23113;SDS011;11726;50.122;8.832;2023-08-06T01:02:02;4.75;;;2.90;;
23113;SDS011;11726;50.122;8.832;2023-08-06T01:04:29;7.07;;;3.22;;
23113;SDS011;11726;50.122;8.832;2023-08-06T01:07:03;4.93;;;3.22;;
23113;SDS011;11726;50.122;8.832;2023-08-06T01:15:17;4.40;;;2.95;;
23113;SDS011;11726;50.122;8.832;2023-08-06T01:17:46;5.68;;;2.80;;
23113;SDS011;11726;50.122;8.832;2023-08-06T01:20:14;4.47;;;3.08;;
23113;SDS011;11726;50.122;8.832;2023-08-06T01:22:41;4.68;;;2.92;;
23113;SDS011;11726;50.122;8.832;2023-08-06T01:25:07;4.03;;;2.53;;
23113;SDS011;11726;50.122;8.832;2023-08-06T01:27:49;6.90;;;3.30;;
23113;SDS011;11726;50.122;8.832;2023-08-06T01:30:20;7.25;;;3.78;;
23113;SDS011;11726;50.122;8.832;2023-08-06T01:32:57;8.32;;;3.80;;
23113;SDS011;11726;50.122;8.832;2023-08-06T01:35:26;7.95;;;3.78;;
23113;SDS011;11726;50.122;8.832;2023-08-06T01:37:54;10.52;;;3.53;;
23113;SDS011;11726;50.122;8.832;2023-08-06T01:40:22;7.00;;;3.28;;
23113;SDS011;11726;50.122;8.832;2023-08-06T01:42:49;5.20;;;3.15;;
23113;SDS011;11726;50.122;8.832;2023-08-06T01:45:15;5.63;;;2.90;;
23113;SDS011;11726;50.122;8.832;2023-08-06T01:47:42;3.97;;;3.25;;
23113;SDS011;11726;50.122;8.832;2023-08-06T01:50:09;6.60;;;3.40;;
23113;SDS011;11726;50.122;8.832;2023-08-06T01:52:35;4.65;;;2.92;;
23113;SDS011;11726;50.122;8.832;2023-08-06T01:55:02;4.93;;;3.00;;
23113;SDS011;11726;50.122;8.832;2023-08-06T01:57:29;4.95;;;2.88;;
23113;SDS011;11726;50.122;8.832;2023-08-06T01:59:55;4.30;;;2.83;;
23113;SDS011;11726;50.122;8.832;2023-08-06T02:02:22;4.07;;;3.00;;
23113;SDS011;11726;50.122;8.832;2023-08-06T02:04:49;5.20;;;2.78;;
23113;SDS011;11726;50.122;8.832;2023-08-06T02:07:16;7.93;;;3.50;;
23113;SDS011;11726;50.122;8.832;2023-08-06T02:09:42;4.45;;;3.20;;
23113;SDS011;11726;50.122;8.832;2023-08-06T02:12:09;4.47;;;3.40;;
23113;SDS011;11726;50.122;8.832;2023-08-06T02:14:35;5.15;;;3.08;;
23113;SDS011;11726;50.122;8.832;2023-08-06T02:17:02;3.63;;;2.90;;
23113;SDS011;11726;50.122;8.832;2023-08-06T02:19:29;5.13;;;3.88;;
23113;SDS011;11726;50.122;8.832;2023-08-06T02:21:55;10.20;;;3.90;;
23113;SDS011;11726;50.122;8.832;2023-08-06T02:24:22;6.20;;;3.63;;
23113;SDS011;11726;50.122;8.832;2023-08-06T02:26:49;5.55;;;3.20;;
23113;SDS011;11726;50.122;8.832;2023-08-06T02:29:17;5.03;;;3.10;;
23113;SDS011;11726;50.122;8.832;2023-08-06T02:31:44;4.18;;;2.67;;
23113;SDS011;11726;50.122;8.832;2023-08-06T02:34:11;5.10;;;3.22;;
23113;SDS011;11726;50.122;8.832;2023-08-06T02:36:37;3.55;;;2.83;;
23113;SDS011;11726;50.122;8.832;2023-08-06T02:39:04;3.80;;;2.60;;
23113;SDS011;11726;50.122;8.832;2023-08-06T02:41:30;3.15;;;2.85;;
23113;SDS011;11726;50.122;8.832;2023-08-06T02:43:57;5.85;;;2.90;;
23113;SDS011;11726;50.122;8.832;2023-08-06T02:46:24;3.75;;;3.15;;
23113;SDS011;11726;50.122;8.832;2023-08-06T02:48:51;3.88;;;2.58;;
23113;SDS011;11726;50.122;8.832;2023-08-06T02:51:17;3.88;;;3.00;;
23113;SDS011;11726;50.122;8.832;2023-08-06T02:53:44;7.05;;;2.80;;
23113;SDS011;11726;50.122;8.832;2023-08-06T02:56:11;4.13;;;2.88;;
23113;SDS011;11726;50.122;8.832;2023-08-06T02:58:38;7.75;;;2.78;;
23113;SDS011;11726;50.122;8.832;2023-08-06T03:01:05;7.47;;;2.85;;
23113;SDS011;11726;50.122;8.832;2023-08-06T03:03:33;3.67;;;2.55;;
23113;SDS011;11726;50.122;8.832;2023-08-06T03:06:00;7.70;;;2.60;;
23113;SDS011;11726;50.122;8.832;2023-08-06T03:08:27;3.28;;;2.42;;
23113;SDS011;11726;50.122;8.832;2023-08-06T03:10:54;4.78;;;2.47;;
23113;SDS011;11726;50.122;8.832;2023-08-06T03:13:21;3.35;;;2.58;;
23113;SDS011;11726;50.122;8.832;2023-08-06T03:15:57;5.07;;;2.53;;
23113;SDS011;11726;50.122;8.832;2023-08-06T03:18:25;4.40;;;2.60;;
23113;SDS011;11726;50.122;8.832;2023-08-06T03:20:52;4.22;;;2.65;;
23113;SDS011;11726;50.122;8.832;2023-08-06T03:23:19;3.53;;;2.42;;
23113;SDS011;11726;50.122;8.832;2023-08-06T03:25:46;6.65;;;2.47;;
23113;SDS011;11726;50.122;8.832;2023-08-06T03:28:13;4.68;;;2.60;;
23113;SDS011;11726;50.122;8.832;2023-08-06T03:30:39;6.93;;;2.20;;
23113;SDS011;11726;50.122;8.832;2023-08-06T03:33:06;3.53;;;2.42;;
23113;SDS011;11726;50.122;8.832;2023-08-06T03:35:33;8.88;;;2.30;;
23113;SDS011;11726;50.122;8.832;2023-08-06T03:37:59;2.85;;;2.40;;
23113;SDS011;11726;50.122;8.832;2023-08-06T03:40:26;3.75;;;2.33;;
23113;SDS011;11726;50.122;8.832;2023-08-06T03:42:52;7.70;;;2.50;;
23113;SDS011;11726;50.122;8.832;2023-08-06T03:45:19;6.85;;;2.80;;
23113;SDS011;11726;50.122;8.832;2023-08-06T03:47:46;5.78;;;2.65;;
23113;SDS011;11726;50.122;8.832;2023-08-06T03:50:12;2.90;;;2.22;;
23113;SDS011;11726;50.122;8.832;2023-08-06T03:52:39;3.40;;;2.05;;
23113;SDS011;11726;50.122;8.832;2023-08-06T03:55:06;3.97;;;2.78;;
23113;SDS011;11726;50.122;8.832;2023-08-06T03:57:33;9.02;;;2.33;;
23113;SDS011;11726;50.122;8.832;2023-08-06T03:59:59;4.00;;;2.47;;
23113;SDS011;11726;50.122;8.832;2023-08-06T04:02:26;3.63;;;2.20;;
23113;SDS011;11726;50.122;8.832;2023-08-06T04:04:53;5.28;;;2.75;;
23113;SDS011;11726;50.122;8.832;2023-08-06T04:07:20;4.13;;;1.95;;
23113;SDS011;11726;50.122;8.832;2023-08-06T04:10:20;3.30;;;2.15;;
23113;SDS011;11726;50.122;8.832;2023-08-06T04:12:39;3.33;;;2.17;;
23113;SDS011;11726;50.122;8.832;2023-08-06T04:15:06;4.10;;;2.28;;
23113;SDS011;11726;50.122;8.832;2023-08-06T04:17:33;4.10;;;2.05;;
23113;SDS011;11726;50.122;8.832;2023-08-06T04:20:00;5.45;;;2.08;;
23113;SDS011;11726;50.122;8.832;2023-08-06T04:22:27;2.22;;;1.80;;
23113;SDS011;11726;50.122;8.832;2023-08-06T04:24:54;7.97;;;2.15;;
23113;SDS011;11726;50.122;8.832;2023-08-06T04:27:21;3.90;;;1.52;;
23113;SDS011;11726;50.122;8.832;2023-08-06T04:29:47;5.47;;;2.10;;
23113;SDS011;11726;50.122;8.832;2023-08-06T04:32:14;3.55;;;1.90;;
23113;SDS011;11726;50.122;8.832;2023-08-06T04:34:41;3.75;;;1.70;;
23113;SDS011;11726;50.122;8.832;2023-08-06T04:37:07;4.60;;;2.38;;
23113;SDS011;11726;50.122;8.832;2023-08-06T04:39:34;6.60;;;2.00;;
23113;SDS011;11726;50.122;8.832;2023-08-06T04:42:00;4.72;;;1.92;;
23113;SDS011;11726;50.122;8.832;2023-08-06T04:44:27;4.30;;;1.85;;
23113;SDS011;11726;50.122;8.832;2023-08-06T04:46:54;4.78;;;1.83;;
23113;SDS011;11726;50.122;8.832;2023-08-06T04:49:20;3.70;;;1.85;;
23113;SDS011;11726;50.122;8.832;2023-08-06T04:51:47;2.92;;;1.77;;
23113;SDS011;11726;50.122;8.832;2023-08-06T04:54:14;4.88;;;1.50;;
23113;SDS011;11726;50.122;8.832;2023-08-06T04:56:41;3.28;;;1.73;;
23113;SDS011;11726;50.122;8.832;2023-08-06T04:59:08;2.50;;;1.50;;
23113;SDS011;11726;50.122;8.832;2023-08-06T05:01:34;4.13;;;1.60;;
23113;SDS011;11726;50.122;8.832;2023-08-06T05:04:01;3.92;;;1.42;;
23113;SDS011;11726;50.122;8.832;2023-08-06T05:06:28;4.70;;;1.90;;
23113;SDS011;11726;50.122;8.832;2023-08-06T05:08:54;2.35;;;1.50;;
23113;SDS011;11726;50.122;8.832;2023-08-06T05:11:21;1.80;;;1.55;;
23113;SDS011;11726;50.122;8.832;2023-08-06T05:13:48;5.22;;;1.08;;
23113;SDS011;11726;50.122;8.832;2023-08-06T05:16:14;1.30;;;1.20;;
23113;SDS011;11726;50.122;8.832;2023-08-06T05:18:41;5.00;;;1.27;;
23113;SDS011;11726;50.122;8.832;2023-08-06T05:21:08;2.28;;;1.50;;
23113;SDS011;11726;50.122;8.832;2023-08-06T05:23:34;1.75;;;1.42;;
23113;SDS011;11726;50.122;8.832;2023-08-06T05:26:01;2.65;;;1.23;;
23113;SDS011;11726;50.122;8.832;2023-08-06T05:28:28;2.33;;;1.40;;
23113;SDS011;11726;50.122;8.832;2023-08-06T05:30:55;2.13;;;1.33;;
23113;SDS011;11726;50.122;8.832;2023-08-06T05:33:21;1.55;;;1.38;;
23113;SDS011;11726;50.122;8.832;2023-08-06T05:35:49;3.05;;;1.52;;
23113;SDS011;11726;50.122;8.832;2023-08-06T05:38:16;1.58;;;1.48;;
23113;SDS011;11726;50.122;8.832;2023-08-06T05:40:43;1.52;;;1.40;;
23113;SDS011;11726;50.122;8.832;2023-08-06T05:43:10;4.53;;;1.60;;
23113;SDS011;11726;50.122;8.832;2023-08-06T05:45:36;1.73;;;1.45;;
23113;SDS011;11726;50.122;8.832;2023-08-06T05:48:03;4.47;;;1.27;;
23113;SDS011;11726;50.122;8.832;2023-08-06T05:50:30;2.03;;;1.60;;
23113;SDS011;11726;50.122;8.832;2023-08-06T05:52:57;2.25;;;1.60;;
23113;SDS011;11726;50.122;8.832;2023-08-06T05:55:27;1.65;;;1.40;;
23113;SDS011;11726;50.122;8.832;2023-08-06T05:57:53;2.42;;;1.35;;
23113;SDS011;11726;50.122;8.832;2023-08-06T06:00:21;2.33;;;1.40;;
23113;SDS011;11726;50.122;8.832;2023-08-06T06:02:48;2.45;;;1.40;;
23113;SDS011;11726;50.122;8.832;2023-08-06T06:05:15;1.23;;;1.13;;
23113;SDS011;11726;50.122;8.832;2023-08-06T06:07:41;1.77;;;1.40;;
23113;SDS011;11726;50.122;8.832;2023-08-06T06:10:08;1.92;;;1.20;;
23113;SDS011;11726;50.122;8.832;2023-08-06T06:12:35;1.48;;;1.10;;
23113;SDS011;11726;50.122;8.832;2023-08-06T06:15:02;4.03;;;0.95;;
23113;SDS011;11726;50.122;8.832;2023-08-06T06:17:29;1.98;;;0.75;;
23113;SDS011;11726;50.122;8.832;2023-08-06T06:19:56;1.90;;;1.10;;
23113;SDS011;11726;50.122;8.832;2023-08-06T06:22:23;1.20;;;0.70;;
23113;SDS011;11726;50.122;8.832;2023-08-06T06:24:49;2.97;;;0.77;;
23113;SDS011;11726;50.122;8.832;2023-08-06T06:27:16;0.50;;;0.50;;
23113;SDS011;11726;50.122;8.832;2023-08-06T06:29:42;2.83;;;0.90;;
23113;SDS011;11726;50.122;8.832;2023-08-06T06:32:09;0.77;;;0.50;;
23113;SDS011;11726;50.122;8.832;2023-08-06T06:34:36;4.68;;;0.80;;
23113;SDS011;11726;50.122;8.832;2023-08-06T06:37:02;0.93;;;0.60;;
23113;SDS011;11726;50.122;8.832;2023-08-06T06:39:29;0.93;;;0.70;;
23113;SDS011;11726;50.122;8.832;2023-08-06T06:41:56;2.55;;;0.63;;
23113;SDS011;11726;50.122;8.832;2023-08-06T06:44:23;0.80;;;0.77;;
23113;SDS011;11726;50.122;8.832;2023-08-06T06:46:50;3.25;;;0.85;;
23113;SDS011;11726;50.122;8.832;2023-08-06T06:49:16;0.90;;;0.68;;
23113;SDS011;11726;50.122;8.832;2023-08-06T06:51:43;0.98;;;0.68;;
23113;SDS011;11726;50.122;8.832;2023-08-06T06:54:10;0.82;;;0.60;;
23113;SDS011;11726;50.122;8.832;2023-08-06T06:56:37;2.83;;;0.80;;
23113;SDS011;11726;50.122;8.832;2023-08-06T06:59:04;1.67;;;0.68;;
23113;SDS011;11726;50.122;8.832;2023-08-06T07:01:30;1.73;;;0.65;;
23113;SDS011;11726;50.122;8.832;2023-08-06T07:03:57;0.73;;;0.50;;
23113;SDS011;11726;50.122;8.832;2023-08-06T07:06:24;2.35;;;0.60;;
23113;SDS011;11726;50.122;8.832;2023-08-06T07:08:51;1.85;;;0.63;;
23113;SDS011;11726;50.122;8.832;2023-08-06T07:11:18;0.90;;;0.80;;
23113;SDS011;11726;50.122;8.832;2023-08-06T07:13:44;2.25;;;0.70;;
23113;SDS011;11726;50.122;8.832;2023-08-06T07:16:11;0.70;;;0.70;;
23113;SDS011;11726;50.122;8.832;2023-08-06T07:18:38;0.55;;;0.55;;
23113;SDS011;11726;50.122;8.832;2023-08-06T07:21:04;0.52;;;0.52;;
23113;SDS011;11726;50.122;8.832;2023-08-06T07:23:31;1.80;;;0.85;;
23113;SDS011;11726;50.122;8.832;2023-08-06T07:25:57;2.03;;;1.10;;
23113;SDS011;11726;50.122;8.832;2023-08-06T07:28:24;1.95;;;0.60;;
23113;SDS011;11726;50.122;8.832;2023-08-06T07:30:51;3.67;;;0.77;;
23113;SDS011;11726;50.122;8.832;2023-08-06T07:33:18;2.25;;;0.50;;
23113;SDS011;11726;50.122;8.832;2023-08-06T07:35:44;1.17;;;0.45;;
23113;SDS011;11726;50.122;8.832;2023-08-06T07:38:11;4.82;;;0.95;;
23113;SDS011;11726;50.122;8.832;2023-08-06T07:40:38;3.65;;;1.20;;
23113;SDS011;11726;50.122;8.832;2023-08-06T07:43:05;9.57;;;1.83;;
23113;SDS011;11726;50.122;8.832;2023-08-06T07:45:32;1.55;;;1.02;;
23113;SDS011;11726;50.122;8.832;2023-08-06T07:48:00;0.60;;;0.40;;
23113;SDS011;11726;50.122;8.832;2023-08-06T07:50:27;5.90;;;1.00;;
23113;SDS011;11726;50.122;8.832;2023-08-06T07:52:54;1.38;;;0.63;;
23113;SDS011;11726;50.122;8.832;2023-08-06T07:55:21;1.02;;;0.65;;
23113;SDS011;11726;50.122;8.832;2023-08-06T07:57:48;2.33;;;0.50;;
23113;SDS011;11726;50.122;8.832;2023-08-06T08:00:14;1.80;;;0.55;;
23113;SDS011;11726;50.122;8.832;2023-08-06T08:02:41;1.95;;;0.40;;
23113;SDS011;11726;50.122;8.832;2023-08-06T08:05:08;0.88;;;0.60;;
23113;SDS011;11726;50.122;8.832;2023-08-06T08:07:34;0.80;;;0.60;;
23113;SDS011;11726;50.122;8.832;2023-08-06T08:10:01;1.85;;;0.65;;
23113;SDS011;11726;50.122;8.832;2023-08-06T08:12:28;0.90;;;0.50;;
23113;SDS011;11726;50.122;8.832;2023-08-06T08:14:54;1.67;;;0.45;;
23113;SDS011;11726;50.122;8.832;2023-08-06T08:17:21;0.40;;;0.40;;
23113;SDS011;11726;50.122;8.832;2023-08-06T08:19:48;0.50;;;0.50;;
23113;SDS011;11726;50.122;8.832;2023-08-06T08:22:14;0.90;;;0.50;;
23113;SDS011;11726;50.122;8.832;2023-08-06T08:24:41;1.15;;;0.50;;
23113;SDS011;11726;50.122;8.832;2023-08-06T08:27:08;0.98;;;0.52;;
23113;SDS011;11726;50.122;8.832;2023-08-06T08:29:34;1.42;;;0.68;;
23113;SDS011;11726;50.122;8.832;2023-08-06T08:32:01;1.63;;;0.70;;
23113;SDS011;11726;50.122;8.832;2023-08-06T08:34:27;0.52;;;0.43;;
23113;SDS011;11726;50.122;8.832;2023-08-06T08:36:54;0.82;;;0.65;;
23113;SDS011;11726;50.122;8.832;2023-08-06T08:39:21;0.85;;;0.60;;
23113;SDS011;11726;50.122;8.832;2023-08-06T08:41:47;1.00;;;0.47;;
23113;SDS011;11726;50.122;8.832;2023-08-06T08:44:14;0.80;;;0.68;;
23113;SDS011;11726;50.122;8.832;2023-08-06T08:46:43;0.68;;;0.50;;
23113;SDS011;11726;50.122;8.832;2023-08-06T08:49:11;0.95;;;0.55;;
23113;SDS011;11726;50.122;8.832;2023-08-06T08:51:38;0.85;;;0.68;;
23113;SDS011;11726;50.122;8.832;2023-08-06T08:54:04;0.70;;;0.68;;
23113;SDS011;11726;50.122;8.832;2023-08-06T08:56:34;0.95;;;0.60;;
23113;SDS011;11726;50.122;8.832;2023-08-06T08:59:01;2.92;;;0.60;;
23113;SDS011;11726;50.122;8.832;2023-08-06T09:01:28;0.50;;;0.43;;
23113;SDS011;11726;50.122;8.832;2023-08-06T09:03:55;2.55;;;0.90;;
23113;SDS011;11726;50.122;8.832;2023-08-06T09:06:23;1.75;;;0.77;;
23113;SDS011;11726;50.122;8.832;2023-08-06T09:08:56;2.70;;;0.70;;
23113;SDS011;11726;50.122;8.832;2023-08-06T09:11:34;0.75;;;0.75;;
23113;SDS011;11726;50.122;8.832;2023-08-06T09:14:06;0.60;;;0.50;;
23113;SDS011;11726;50.122;8.832;2023-08-06T09:16:35;0.38;;;0.38;;
23113;SDS011;11726;50.122;8.832;2023-08-06T09:19:08;0.82;;;0.52;;
23113;SDS011;11726;50.122;8.832;2023-08-06T09:21:42;1.33;;;0.50;;
23113;SDS011;11726;50.122;8.832;2023-08-06T09:24:09;1.17;;;0.30;;
23113;SDS011;11726;50.122;8.832;2023-08-06T09:26:37;0.40;;;0.40;;
23113;SDS011;11726;50.122;8.832;2023-08-06T09:29:08;0.43;;;0.43;;
23113;SDS011;11726;50.122;8.832;2023-08-06T09:34:15;0.20;;;0.20;;
23113;SDS011;11726;50.122;8.832;2023-08-06T09:36:49;0.80;;;0.40;;
23113;SDS011;11726;50.122;8.832;2023-08-06T09:39:18;0.30;;;0.30;;
23113;SDS011;11726;50.122;8.832;2023-08-06T09:41:47;0.38;;;0.22;;
23113;SDS011;11726;50.122;8.832;2023-08-06T09:44:18;0.30;;;0.20;;
23113;SDS011;11726;50.122;8.832;2023-08-06T09:46:49;0.30;;;0.30;;
23113;SDS011;11726;50.122;8.832;2023-08-06T09:51:53;0.52;;;0.10;;
23113;SDS011;11726;50.122;8.832;2023-08-06T09:54:24;0.17;;;0.13;;
23113;SDS011;11726;50.122;8.832;2023-08-06T09:56:54;0.40;;;0.28;;
23113;SDS011;11726;50.122;8.832;2023-08-06T09:59:22;0.30;;;0.30;;
23113;SDS011;11726;50.122;8.832;2023-08-06T10:01:49;0.47;;;0.22;;
23113;SDS011;11726;50.122;8.832;2023-08-06T10:04:18;0.40;;;0.30;;
23113;SDS011;11726;50.122;8.832;2023-08-06T10:06:50;1.48;;;0.30;;
23113;SDS011;11726;50.122;8.832;2023-08-06T10:09:17;0.38;;;0.20;;
23113;SDS011;11726;50.122;8.832;2023-08-06T10:11:47;0.47;;;0.40;;
23113;SDS011;11726;50.122;8.832;2023-08-06T10:14:28;1.33;;;0.33;;
23113;SDS011;11726;50.122;8.832;2023-08-06T10:17:02;2.03;;;0.82;;
23113;SDS011;11726;50.122;8.832;2023-08-06T10:19:29;0.60;;;0.20;;
23113;SDS011;11726;50.122;8.832;2023-08-06T10:22:10;0.43;;;0.43;;
23113;SDS011;11726;50.122;8.832;2023-08-06T10:29:49;0.35;;;0.32;;
23113;SDS011;11726;50.122;8.832;2023-08-06T10:32:16;0.10;;;0.10;;
23113;SDS011;11726;50.122;8.832;2023-08-06T10:34:57;0.43;;;0.28;;
23113;SDS011;11726;50.122;8.832;2023-08-06T10:37:34;0.63;;;0.30;;
23113;SDS011;11726;50.122;8.832;2023-08-06T10:40:02;1.10;;;0.30;;
23113;SDS011;11726;50.122;8.832;2023-08-06T10:42:29;0.75;;;0.30;;
23113;SDS011;11726;50.122;8.832;2023-08-06T10:45:13;0.20;;;0.20;;
23113;SDS011;11726;50.122;8.832;2023-08-06T10:47:42;2.17;;;0.45;;
23113;SDS011;11726;50.122;8.832;2023-08-06T10:50:13;0.93;;;0.60;;
23113;SDS011;11726;50.122;8.832;2023-08-06T10:52:43;1.75;;;0.45;;
23113;SDS011;11726;50.122;8.832;2023-08-06T10:55:13;1.40;;;0.50;;
23113;SDS011;11726;50.122;8.832;2023-08-06T10:57:40;0.90;;;0.40;;
23113;SDS011;11726;50.122;8.832;2023-08-06T11:00:07;0.60;;;0.32;;
23113;SDS011;11726;50.122;8.832;2023-08-06T11:05:10;1.27;;;0.52;;
23113;SDS011;11726;50.122;8.832;2023-08-06T11:07:38;1.25;;;0.50;;
23113;SDS011;11726;50.122;8.832;2023-08-06T11:10:09;0.22;;;0.22;;
23113;SDS011;11726;50.122;8.832;2023-08-06T11:12:36;1.70;;;0.52;;
23113;SDS011;11726;50.122;8.832;2023-08-06T11:15:03;0.75;;;0.30;;
23113;SDS011;11726;50.122;8.832;2023-08-06T11:17:32;0.60;;;0.40;;
23113;SDS011;11726;50.122;8.832;2023-08-06T11:20:01;0.55;;;0.35;;
23113;SDS011;11726;50.122;8.832;2023-08-06T11:22:29;0.77;;;0.30;;
23113;SDS011;11726;50.122;8.832;2023-08-06T11:24:56;0.30;;;0.28;;
23113;SDS011;11726;50.122;8.832;2023-08-06T11:27:23;0.63;;;0.30;;
23113;SDS011;11726;50.122;8.832;2023-08-06T11:29:52;1.98;;;0.20;;
23113;SDS011;11726;50.122;8.832;2023-08-06T11:32:18;1.02;;;0.22;;
23113;SDS011;11726;50.122;8.832;2023-08-06T11:34:45;0.25;;;0.10;;
23113;SDS011;11726;50.122;8.832;2023-08-06T11:37:12;0.10;;;0.10;;
23113;SDS011;11726;50.122;8.832;2023-08-06T11:39:39;0.22;;;0.22;;
23113;SDS011;11726;50.122;8.832;2023-08-06T11:42:14;0.20;;;0.20;;
23113;SDS011;11726;50.122;8.832;2023-08-06T11:44:41;2.33;;;0.40;;
23113;SDS011;11726;50.122;8.832;2023-08-06T11:47:15;0.75;;;0.32;;
23113;SDS011;11726;50.122;8.832;2023-08-06T11:49:49;0.47;;;0.40;;
23113;SDS011;11726;50.122;8.832;2023-08-06T11:52:17;0.20;;;0.20;;
23113;SDS011;11726;50.122;8.832;2023-08-06T11:54:46;0.20;;;0.20;;
23113;SDS011;11726;50.122;8.832;2023-08-06T11:57:14;0.47;;;0.20;;
23113;SDS011;11726;50.122;8.832;2023-08-06T11:59:43;0.30;;;0.30;;
23113;SDS011;11726;50.122;8.832;2023-08-06T12:02:11;0.50;;;0.30;;
23113;SDS011;11726;50.122;8.832;2023-08-06T12:07:28;0.47;;;0.40;;
23113;SDS011;11726;50.122;8.832;2023-08-06T12:09:56;0.75;;;0.20;;
23113;SDS011;11726;50.122;8.832;2023-08-06T12:12:24;0.10;;;0.10;;
23113;SDS011;11726;50.122;8.832;2023-08-06T12:14:51;0.50;;;0.10;;
23113;SDS011;11726;50.122;8.832;2023-08-06T12:17:17;0.22;;;0.10;;
23113;SDS011;11726;50.122;8.832;2023-08-06T12:19:44;0.30;;;0.10;;
23113;SDS011;11726;50.122;8.832;2023-08-06T12:22:13;0.13;;;0.10;;
23113;SDS011;11726;50.122;8.832;2023-08-06T12:24:41;0.57;;;0.13;;
23113;SDS011;11726;50.122;8.832;2023-08-06T12:27:08;0.15;;;0.10;;
23113;SDS011;11726;50.122;8.832;2023-08-06T12:29:35;2.28;;;0.20;;
23113;SDS011;11726;50.122;8.832;2023-08-06T12:32:03;0.77;;;0.40;;
23113;SDS011;11726;50.122;8.832;2023-08-06T12:34:30;0.55;;;0.17;;
23113;SDS011;11726;50.122;8.832;2023-08-06T12:37:16;0.28;;;0.20;;
23113;SDS011;11726;50.122;8.832;2023-08-06T12:39:43;4.85;;;0.35;;
23113;SDS011;11726;50.122;8.832;2023-08-06T12:42:09;0.20;;;0.20;;
23113;SDS011;11726;50.122;8.832;2023-08-06T12:44:36;0.20;;;0.20;;
23113;SDS011;11726;50.122;8.832;2023-08-06T12:47:04;0.10;;;0.10;;
23113;SDS011;11726;50.122;8.832;2023-08-06T12:49:30;0.20;;;0.10;;
23113;SDS011;11726;50.122;8.832;2023-08-06T12:51:59;0.40;;;0.30;;
23113;SDS011;11726;50.122;8.832;2023-08-06T12:54:26;1.08;;;0.20;;
23113;SDS011;11726;50.122;8.832;2023-08-06T12:56:53;0.20;;;0.20;;
23113;SDS011;11726;50.122;8.832;2023-08-06T12:59:20;0.20;;;0.20;;
23113;SDS011;11726;50.122;8.832;2023-08-06T13:01:47;0.20;;;0.20;;
23113;SDS011;11726;50.122;8.832;2023-08-06T13:04:14;0.20;;;0.20;;
23113;SDS011;11726;50.122;8.832;2023-08-06T13:06:48;0.20;;;0.20;;
23113;SDS011;11726;50.122;8.832;2023-08-06T13:09:15;0.52;;;0.20;;
23113;SDS011;11726;50.122;8.832;2023-08-06T13:11:42;1.00;;;0.30;;
23113;SDS011;11726;50.122;8.832;2023-08-06T13:14:12;0.10;;;0.10;;
23113;SDS011;11726;50.122;8.832;2023-08-06T13:16:41;0.30;;;0.20;;
23113;SDS011;11726;50.122;8.832;2023-08-06T13:19:09;0.45;;;0.30;;
23113;SDS011;11726;50.122;8.832;2023-08-06T13:24:12;0.28;;;0.20;;
23113;SDS011;11726;50.122;8.832;2023-08-06T13:26:39;0.93;;;0.30;;
23113;SDS011;11726;50.122;8.832;2023-08-06T13:29:05;0.45;;;0.30;;
23113;SDS011;11726;50.122;8.832;2023-08-06T13:31:33;0.47;;;0.20;;
23113;SDS011;11726;50.122;8.832;2023-08-06T13:34:00;0.20;;;0.20;;
23113;SDS011;11726;50.122;8.832;2023-08-06T13:36:27;0.30;;;0.30;;
23113;SDS011;11726;50.122;8.832;2023-08-06T13:38:54;0.50;;;0.20;;
23113;SDS011;11726;50.122;8.832;2023-08-06T13:41:21;0.20;;;0.20;;
23113;SDS011;11726;50.122;8.832;2023-08-06T13:43:48;0.82;;;0.35;;
23113;SDS011;11726;50.122;8.832;2023-08-06T13:46:17;1.02;;;0.28;;
23113;SDS011;11726;50.122;8.832;2023-08-06T13:48:46;0.10;;;0.10;;
23113;SDS011;11726;50.122;8.832;2023-08-06T13:51:17;0.70;;;0.32;;
23113;SDS011;11726;50.122;8.832;2023-08-06T13:53:43;2.20;;;0.25;;
23113;SDS011;11726;50.122;8.832;2023-08-06T13:56:11;0.30;;;0.30;;
23113;SDS011;11726;50.122;8.832;2023-08-06T13:58:38;0.75;;;0.50;;
23113;SDS011;11726;50.122;8.832;2023-08-06T14:01:05;0.95;;;0.40;;
23113;SDS011;11726;50.122;8.832;2023-08-06T14:03:32;1.05;;;0.60;;
23113;SDS011;11726;50.122;8.832;2023-08-06T14:05:59;0.25;;;0.20;;
23113;SDS011;11726;50.122;8.832;2023-08-06T14:08:26;0.70;;;0.30;;
23113;SDS011;11726;50.122;8.832;2023-08-06T14:10:53;0.88;;;0.30;;
23113;SDS011;11726;50.122;8.832;2023-08-06T14:13:20;2.25;;;0.20;;
23113;SDS011;11726;50.122;8.832;2023-08-06T14:15:48;1.55;;;0.40;;
23113;SDS011;11726;50.122;8.832;2023-08-06T14:18:15;1.20;;;0.38;;
23113;SDS011;11726;50.122;8.832;2023-08-06T14:20:42;0.90;;;0.35;;
23113;SDS011;11726;50.122;8.832;2023-08-06T14:23:09;0.68;;;0.30;;
23113;SDS011;11726;50.122;8.832;2023-08-06T14:25:37;0.65;;;0.22;;
23113;SDS011;11726;50.122;8.832;2023-08-06T14:28:04;0.30;;;0.30;;
23113;SDS011;11726;50.122;8.832;2023-08-06T14:30:33;0.30;;;0.30;;
23113;SDS011;11726;50.122;8.832;2023-08-06T14:33:00;0.60;;;0.40;;
23113;SDS011;11726;50.122;8.832;2023-08-06T14:35:42;1.10;;;0.60;;
23113;SDS011;11726;50.122;8.832;2023-08-06T14:52:31;1.10;;;0.60;;
23113;SDS011;11726;50.122;8.832;2023-08-06T14:54:59;1.20;;;0.88;;
23113;SDS011;11726;50.122;8.832;2023-08-06T14:57:28;2.55;;;0.80;;
23113;SDS011;11726;50.122;8.832;2023-08-06T14:59:55;1.13;;;0.60;;
23113;SDS011;11726;50.122;8.832;2023-08-06T15:02:22;2.80;;;0.68;;
23113;SDS011;11726;50.122;8.832;2023-08-06T15:04:49;2.10;;;0.80;;
23113;SDS011;11726;50.122;8.832;2023-08-06T15:07:16;0.88;;;0.60;;
23113;SDS011;11726;50.122;8.832;2023-08-06T15:09:43;0.73;;;0.55;;
23113;SDS011;11726;50.122;8.832;2023-08-06T15:20:06;1.98;;;1.00;;
23113;SDS011;11726;50.122;8.832;2023-08-06T15:22:33;1.23;;;0.93;;
23113;SDS011;11726;50.122;8.832;2023-08-06T15:25:00;0.80;;;0.57;;
23113;SDS011;11726;50.122;8.832;2023-08-06T15:27:28;2.15;;;0.77;;
23113;SDS011;11726;50.122;8.832;2023-08-06T15:29:54;1.63;;;1.00;;
23113;SDS011;11726;50.122;8.832;2023-08-06T15:32:22;1.88;;;0.88;;
23113;SDS011;11726;50.122;8.832;2023-08-06T15:34:49;2.15;;;1.42;;
23113;SDS011;11726;50.122;8.832;2023-08-06T15:37:16;1.67;;;1.20;;